Time;durP1;ratioP1;P1;durP2;ratioP2;P2;SDS_P1;SDS_P2;PMS_P1;PMS_P2;Temp;Humidity;BMP_temperature;BMP_pressure;BME280_temperature;BME280_humidity;BME280_pressure;Samples;Min_cycle;Max_cycle;Signal;HPM_P1;HPM_P2
2023/02/20 00:02:23;;;;;;;1.70;1.53;;;5.50;98.20;;;;;;5002666;28;20490;-75
2023/02/20 00:04:50;;;;;;;1.60;1.30;;;5.50;98.20;;;;;;5017875;28;20506;-76
2023/02/20 00:07:17;;;;;;;1.63;1.30;;;5.50;98.20;;;;;;5005841;28;21031;-74
2023/02/20 00:09:43;;;;;;;1.67;1.40;;;5.40;98.20;;;;;;5012238;28;20460;-76
2023/02/20 00:12:10;;;;;;;1.60;1.30;;;5.40;98.20;;;;;;5003428;28;21000;-76
2023/02/20 00:14:39;;;;;;;1.60;1.30;;;5.40;98.20;;;;;;5014597;28;20457;-74
2023/02/20 00:17:05;;;;;;;1.70;1.40;;;5.40;98.20;;;;;;5010361;28;20499;-75
2023/02/20 00:19:32;;;;;;;1.67;1.30;;;5.40;98.20;;;;;;5021153;28;20459;-76
2023/02/20 00:21:59;;;;;;;1.60;1.30;;;5.40;98.20;;;;;;5003820;28;20522;-75
2023/02/20 00:24:26;;;;;;;1.67;1.40;;;5.40;98.20;;;;;;5017463;28;20492;-75
2023/02/20 00:26:53;;;;;;;1.70;1.40;;;5.40;98.20;;;;;;4991158;28;20481;-75
2023/02/20 00:29:22;;;;;;;1.70;1.50;;;5.30;98.20;;;;;;5014181;28;20549;-76
2023/02/20 00:31:54;;;;;;;1.70;1.50;;;5.30;98.20;;;;;;5002499;28;21023;-75
2023/02/20 00:34:22;;;;;;;1.70;1.43;;;5.30;98.20;;;;;;5009640;28;20619;-75
2023/02/20 00:36:49;;;;;;;1.70;1.30;;;5.30;98.20;;;;;;4999530;28;20499;-76
2023/02/20 00:39:16;;;;;;;1.63;1.40;;;5.30;98.20;;;;;;5011581;28;20487;-75
2023/02/20 00:41:43;;;;;;;1.70;1.40;;;5.40;98.20;;;;;;5001190;28;20817;-75
2023/02/20 00:44:10;;;;;;;1.70;1.50;;;5.40;98.20;;;;;;5009677;28;20468;-75
2023/02/20 00:46:37;;;;;;;1.67;1.40;;;5.40;98.20;;;;;;5002223;28;20815;-75
2023/02/20 00:49:05;;;;;;;1.70;1.57;;;5.30;98.20;;;;;;5016407;28;20972;-75
2023/02/20 00:51:34;;;;;;;1.70;1.40;;;5.40;98.20;;;;;;5005204;28;20480;-75
2023/02/20 00:54:01;;;;;;;1.70;1.53;;;5.40;98.20;;;;;;5009459;28;20464;-75
2023/02/20 00:56:28;;;;;;;1.67;1.30;;;5.40;98.20;;;;;;5000960;28;20498;-75
2023/02/20 00:58:55;;;;;;;1.60;1.30;;;5.40;98.20;;;;;;5011205;28;20456;-75
2023/02/20 01:01:22;;;;;;;1.63;1.30;;;5.40;98.20;;;;;;5000313;28;20506;-74
2023/02/20 01:03:49;;;;;;;1.70;1.40;;;5.40;98.20;;;;;;5012550;28;20467;-75
2023/02/20 01:06:17;;;;;;;1.67;1.40;;;5.50;98.20;;;;;;4997828;28;20476;-75
2023/02/20 01:08:44;;;;;;;1.70;1.40;;;5.50;98.20;;;;;;5013458;28;20487;-75
2023/02/20 01:11:11;;;;;;;1.70;1.40;;;5.50;98.20;;;;;;4999242;28;20933;-75
2023/02/20 01:13:38;;;;;;;1.60;1.30;;;5.50;98.20;;;;;;5008275;28;20567;-75
2023/02/20 01:16:05;;;;;;;1.70;1.40;;;5.50;98.20;;;;;;4997961;28;20479;-75
2023/02/20 01:18:32;;;;;;;1.63;1.30;;;5.50;98.20;;;;;;5015707;28;20488;-75
2023/02/20 01:21:00;;;;;;;1.60;1.30;;;5.50;98.20;;;;;;5000348;28;21007;-74
2023/02/20 01:23:28;;;;;;;1.70;1.40;;;5.60;98.20;;;;;;5018001;28;20474;-75
2023/02/20 01:25:55;;;;;;;1.63;1.30;;;5.60;98.20;;;;;;5007754;28;20583;-74
2023/02/20 01:28:21;;;;;;;1.70;1.50;;;5.60;98.20;;;;;;5017966;28;20498;-74
2023/02/20 01:30:48;;;;;;;1.70;1.30;;;5.60;98.20;;;;;;5005948;28;20551;-74
2023/02/20 01:33:15;;;;;;;1.67;1.40;;;5.60;98.20;;;;;;5007172;28;20499;-75
2023/02/20 01:35:42;;;;;;;1.60;1.30;;;5.60;98.20;;;;;;5016898;28;20791;-75
2023/02/20 01:38:09;;;;;;;1.60;1.33;;;5.60;98.20;;;;;;5005544;28;20791;-75
2023/02/20 01:40:37;;;;;;;1.67;1.40;;;5.60;98.20;;;;;;5015786;28;20468;-74
2023/02/20 01:43:04;;;;;;;1.63;1.30;;;5.60;98.20;;;;;;5002927;28;20488;-75
2023/02/20 01:45:37;;;;;;;1.60;1.30;;;5.70;98.20;;;;;;5016428;28;20913;-75
2023/02/20 01:48:04;;;;;;;1.70;1.40;;;5.70;98.20;;;;;;5011608;28;20488;-75
2023/02/20 01:50:35;;;;;;;1.60;1.30;;;5.70;98.20;;;;;;5007726;28;20461;-75
2023/02/20 01:53:06;;;;;;;1.63;1.30;;;5.70;98.20;;;;;;4999615;28;20531;-75
2023/02/20 01:55:39;;;;;;;1.67;1.30;;;5.70;98.20;;;;;;5020238;28;20480;-75
2023/02/20 01:58:10;;;;;;;1.70;1.40;;;5.70;98.20;;;;;;5002589;28;20559;-74
2023/02/20 02:00:38;;;;;;;1.70;1.40;;;5.70;98.20;;;;;;5007811;28;20858;-75
2023/02/20 02:03:08;;;;;;;1.70;1.43;;;5.70;98.20;;;;;;5004048;28;20492;-74
2023/02/20 02:05:39;;;;;;;1.60;1.30;;;5.70;98.20;;;;;;5013101;28;20835;-74
2023/02/20 02:08:08;;;;;;;1.60;1.30;;;5.70;98.20;;;;;;5002741;28;20474;-74
2023/02/20 02:10:43;;;;;;;1.70;1.40;;;5.70;98.20;;;;;;5008077;28;20551;-75
2023/02/20 02:13:11;;;;;;;1.60;1.30;;;5.70;98.20;;;;;;4997769;28;20490;-75
2023/02/20 02:15:38;;;;;;;1.60;1.30;;;5.70;98.20;;;;;;5026056;28;20482;-74
2023/02/20 02:18:31;;;;;;;1.70;1.40;;;5.80;98.20;;;;;;5008129;28;20480;-75
2023/02/20 02:21:34;;;;;;;1.70;1.50;;;5.80;98.20;;;;;;4994672;28;20468;-74
2023/02/20 02:24:35;;;;;;;1.63;1.30;;;5.80;98.20;;;;;;4994486;28;20464;-74
2023/02/20 02:27:40;;;;;;;1.63;1.30;;;5.80;98.20;;;;;;5002394;28;21044;-74
2023/02/20 02:30:47;;;;;;;1.60;1.30;;;5.70;98.20;;;;;;4985155;28;20648;-75
2023/02/20 02:33:31;;;;;;;1.70;1.43;;;5.70;98.20;;;;;;4994878;28;20534;-74
2023/02/20 02:36:26;;;;;;;1.70;1.40;;;5.70;98.20;;;;;;5006359;28;20561;-75
2023/02/20 02:39:01;;;;;;;1.60;1.30;;;5.60;98.20;;;;;;5013144;28;20455;-74
2023/02/20 02:41:38;;;;;;;1.67;1.37;;;5.60;98.20;;;;;;5002526;28;21042;-74
2023/02/20 02:44:12;;;;;;;2.20;2.00;;;5.60;98.20;;;;;;5006269;28;20463;-75
2023/02/20 02:46:44;;;;;;;1.60;1.30;;;5.60;98.20;;;;;;5005338;28;20882;-75
2023/02/20 02:49:19;;;;;;;1.60;1.30;;;5.50;98.20;;;;;;5014329;28;20578;-75
2023/02/20 02:51:49;;;;;;;1.67;1.33;;;5.50;98.20;;;;;;5006541;28;20483;-74
2023/02/20 02:54:19;;;;;;;1.70;1.40;;;5.50;98.20;;;;;;5014270;28;20464;-74
2023/02/20 02:56:48;;;;;;;1.70;1.50;;;5.50;98.20;;;;;;5005686;28;20484;-74
2023/02/20 02:59:20;;;;;;;1.70;1.40;;;5.50;98.20;;;;;;5015051;28;20459;-74
2023/02/20 03:01:50;;;;;;;1.70;1.40;;;5.50;98.20;;;;;;5001343;28;20992;-74
2023/02/20 03:04:22;;;;;;;1.70;1.40;;;5.50;98.20;;;;;;5013611;28;20900;-74
2023/02/20 03:06:56;;;;;;;1.63;1.30;;;5.50;98.20;;;;;;4999303;28;20510;-74
2023/02/20 03:09:27;;;;;;;1.63;1.40;;;5.50;98.20;;;;;;5016891;28;20534;-75
2023/02/20 03:11:55;;;;;;;1.67;1.30;;;5.50;98.20;;;;;;4996912;28;21023;-74
2023/02/20 03:17:17;;;;;;;1.67;1.37;;;5.50;98.20;;;;;;5000458;28;20539;-73
2023/02/20 03:19:47;;;;;;;1.70;1.43;;;5.50;98.20;;;;;;5007335;28;20487;-76
2023/02/20 03:22:20;;;;;;;1.70;1.30;;;5.50;98.20;;;;;;4995378;28;20480;-75
2023/02/20 03:24:57;;;;;;;1.70;1.50;;;5.50;98.20;;;;;;5013296;28;20486;-74
2023/02/20 03:27:30;;;;;;;1.60;1.30;;;5.50;98.20;;;;;;4998536;28;20586;-75
2023/02/20 03:29:59;;;;;;;1.60;1.30;;;5.50;98.20;;;;;;5015154;28;20464;-74
2023/02/20 03:43:38;;;;;;;1.70;1.50;;;5.40;98.20;;;;;;5003977;28;20493;-74
2023/02/20 03:46:10;;;;;;;1.70;1.40;;;5.30;98.20;;;;;;5005697;28;21147;-73
2023/02/20 03:48:42;;;;;;;1.70;1.50;;;5.30;98.20;;;;;;5005989;28;20492;-75
2023/02/20 03:51:10;;;;;;;1.70;1.43;;;5.30;98.20;;;;;;5006920;28;20881;-73
2023/02/20 03:53:39;;;;;;;1.70;1.30;;;5.30;98.20;;;;;;5014417;28;20940;-74
2023/02/20 03:56:10;;;;;;;1.63;1.30;;;5.30;98.20;;;;;;5007347;28;20497;-74
2023/02/20 03:58:40;;;;;;;1.60;1.30;;;5.20;98.20;;;;;;5015320;28;20544;-74
2023/02/20 04:01:09;;;;;;;1.70;1.30;;;5.20;98.20;;;;;;5006288;28;21109;-74
2023/02/20 04:03:41;;;;;;;1.60;1.33;;;5.20;98.20;;;;;;5014591;28;20466;-74
2023/02/20 04:06:11;;;;;;;1.70;1.40;;;5.20;98.20;;;;;;5000437;28;20582;-74
2023/02/20 04:08:45;;;;;;;1.67;1.37;;;5.20;98.20;;;;;;5015104;28;20501;-74
2023/02/20 04:11:17;;;;;;;1.70;1.40;;;5.20;98.20;;;;;;5010118;28;21234;-74
2023/02/20 04:13:45;;;;;;;1.70;1.40;;;5.20;98.20;;;;;;5009887;28;20854;-74
2023/02/20 04:16:14;;;;;;;1.70;1.50;;;5.10;98.20;;;;;;5001718;28;20575;-74
2023/02/20 04:18:41;;;;;;;1.67;1.30;;;5.10;98.20;;;;;;5013969;28;20451;-73
2023/02/20 04:21:17;;;;;;;1.60;1.30;;;5.10;98.20;;;;;;5004098;28;20856;-75
2023/02/20 04:23:49;;;;;;;1.60;1.30;;;5.10;98.20;;;;;;5007625;28;20470;-75
2023/02/20 04:26:19;;;;;;;1.70;1.50;;;5.10;98.20;;;;;;5000383;28;20480;-74
2023/02/20 04:28:46;;;;;;;1.70;1.40;;;5.00;98.20;;;;;;5009525;28;20496;-74
2023/02/20 04:31:15;;;;;;;1.63;1.37;;;5.00;98.20;;;;;;5006633;28;20588;-74
2023/02/20 04:33:43;;;;;;;1.67;1.30;;;5.00;98.20;;;;;;5011309;28;20482;-74
2023/02/20 04:36:10;;;;;;;1.60;1.40;;;5.00;98.20;;;;;;4997647;28;20513;-74
2023/02/20 04:38:37;;;;;;;1.67;1.40;;;5.00;98.20;;;;;;5010587;28;20551;-74
2023/02/20 04:41:06;;;;;;;1.60;1.30;;;5.00;98.20;;;;;;4999501;28;21029;-74
2023/02/20 04:43:32;;;;;;;1.60;1.40;;;5.00;98.20;;;;;;5010276;28;21000;-74
2023/02/20 04:46:00;;;;;;;1.70;1.40;;;5.00;98.20;;;;;;5007132;28;20631;-74
2023/02/20 04:48:27;;;;;;;1.93;1.73;;;4.90;98.20;;;;;;5004602;28;20476;-74
2023/02/20 04:50:54;;;;;;;1.70;1.60;;;4.90;98.20;;;;;;5000676;28;20526;-74
2023/02/20 04:53:21;;;;;;;1.70;1.50;;;4.90;98.20;;;;;;5010697;28;20542;-74
2023/02/20 04:55:48;;;;;;;1.60;1.30;;;4.90;98.20;;;;;;5017554;28;20483;-74
2023/02/20 04:58:16;;;;;;;1.60;1.30;;;4.90;98.20;;;;;;5006094;28;20621;-74
2023/02/20 05:00:43;;;;;;;1.63;1.40;;;5.00;98.20;;;;;;5008600;28;20499;-74
2023/02/20 05:03:10;;;;;;;1.63;1.40;;;4.90;98.20;;;;;;4993095;28;20484;-74
2023/02/20 05:05:37;;;;;;;1.63;1.40;;;5.00;98.20;;;;;;5013470;28;20557;-74
2023/02/20 05:08:06;;;;;;;1.67;1.30;;;4.90;98.20;;;;;;4995570;28;20583;-74
2023/02/20 05:10:35;;;;;;;1.63;1.37;;;4.90;98.20;;;;;;5011404;28;20467;-73
2023/02/20 05:13:03;;;;;;;1.70;1.40;;;4.90;98.20;;;;;;4991050;28;20650;-73
2023/02/20 05:15:32;;;;;;;1.70;1.40;;;4.80;98.20;;;;;;5024512;28;20488;-74
2023/02/20 05:17:59;;;;;;;1.70;1.50;;;4.80;98.20;;;;;;4996825;28;20570;-74
2023/02/20 05:23:07;;;;;;;1.70;1.50;;;4.80;98.20;;;;;;4995841;28;20468;-73
2023/02/20 05:25:34;;;;;;;1.70;1.40;;;4.80;98.20;;;;;;5012488;28;20481;-73
2023/02/20 05:28:01;;;;;;;1.70;1.40;;;4.80;98.20;;;;;;4995950;28;20482;-74
2023/02/20 05:30:28;;;;;;;1.70;1.50;;;4.80;98.20;;;;;;5020113;28;20472;-73
2023/02/20 05:32:57;;;;;;;1.70;1.40;;;4.80;98.20;;;;;;4989252;28;20502;-73
2023/02/20 05:35:24;;;;;;;1.70;1.50;;;4.80;98.20;;;;;;5022302;28;20488;-74
2023/02/20 05:37:51;;;;;;;1.70;1.50;;;4.70;98.20;;;;;;4987758;28;20576;-74
2023/02/20 05:40:18;;;;;;;1.70;1.40;;;4.70;98.20;;;;;;5017794;28;20582;-74
2023/02/20 05:42:45;;;;;;;1.70;1.40;;;4.70;98.20;;;;;;4988202;28;21333;-73
2023/02/20 05:45:14;;;;;;;1.70;1.50;;;4.70;98.20;;;;;;5013527;28;20582;-73
2023/02/20 05:47:42;;;;;;;1.60;1.37;;;4.70;98.20;;;;;;5008700;28;20483;-73
2023/02/20 05:50:10;;;;;;;1.70;1.50;;;4.70;98.20;;;;;;5017177;28;20488;-73
2023/02/20 05:52:37;;;;;;;1.70;1.40;;;4.70;98.20;;;;;;4996837;28;20860;-73
2023/02/20 05:55:05;;;;;;;1.63;1.40;;;4.70;98.20;;;;;;5013111;28;20575;-74
2023/02/20 05:57:32;;;;;;;1.70;1.53;;;4.70;98.20;;;;;;5009938;28;20860;-73
2023/02/20 06:00:00;;;;;;;1.60;1.40;;;4.70;98.20;;;;;;5020159;28;20463;-73
2023/02/20 06:02:32;;;;;;;1.70;1.47;;;4.80;98.20;;;;;;5000337;28;20488;-74
2023/02/20 06:05:00;;;;;;;1.70;1.40;;;4.80;98.20;;;;;;5011327;28;20985;-74
2023/02/20 06:07:29;;;;;;;1.60;1.40;;;4.80;98.20;;;;;;4993050;28;20491;-73
2023/02/20 06:09:57;;;;;;;1.70;1.40;;;4.80;98.20;;;;;;5017600;28;20519;-73
2023/02/20 06:12:24;;;;;;;1.67;1.40;;;4.80;98.20;;;;;;4992441;28;20858;-73
2023/02/20 06:14:51;;;;;;;1.70;1.40;;;4.80;98.20;;;;;;5012333;28;21000;-73
2023/02/20 06:17:19;;;;;;;1.67;1.40;;;4.80;98.20;;;;;;4992274;28;20481;-72
2023/02/20 06:19:46;;;;;;;1.70;1.40;;;4.80;98.20;;;;;;5018068;28;20868;-73
2023/02/20 06:22:16;;;;;;;1.80;1.70;;;4.80;98.20;;;;;;4994434;28;20487;-74
2023/02/20 06:24:47;;;;;;;1.70;1.50;;;4.80;98.20;;;;;;5018999;28;20479;-72
2023/02/20 06:27:15;;;;;;;1.70;1.40;;;4.80;98.20;;;;;;4996719;28;20876;-73
2023/02/20 06:29:42;;;;;;;1.60;1.40;;;4.80;98.20;;;;;;5015886;28;20490;-74
2023/02/20 06:32:10;;;;;;;1.60;1.30;;;4.80;98.20;;;;;;4992812;28;20480;-73
2023/02/20 06:34:37;;;;;;;1.70;1.53;;;4.70;98.20;;;;;;5011442;28;20521;-73
2023/02/20 06:37:05;;;;;;;1.60;1.30;;;4.70;98.20;;;;;;4996748;28;20892;-73
2023/02/20 06:39:33;;;;;;;1.70;1.40;;;4.70;98.20;;;;;;5010954;28;20655;-73
2023/02/20 06:42:03;;;;;;;1.60;1.30;;;4.70;98.20;;;;;;5002480;28;21008;-73
2023/02/20 06:44:32;;;;;;;1.70;1.50;;;4.70;98.20;;;;;;5013020;28;20460;-73
2023/02/20 06:47:00;;;;;;;1.63;1.30;;;4.70;98.20;;;;;;4998788;28;20511;-73
2023/02/20 06:49:27;;;;;;;1.67;1.30;;;4.60;98.20;;;;;;5012228;28;20493;-74
2023/02/20 06:51:55;;;;;;;1.70;1.40;;;4.60;98.20;;;;;;4999657;28;20504;-74
2023/02/20 06:54:23;;;;;;;1.63;1.40;;;4.60;98.20;;;;;;5011509;28;21007;-74
2023/02/20 06:56:51;;;;;;;1.70;1.40;;;4.60;98.20;;;;;;5006173;28;20484;-73
2023/02/20 06:59:20;;;;;;;1.63;1.30;;;4.60;98.20;;;;;;5019387;28;20466;-73
2023/02/20 07:01:47;;;;;;;1.60;1.40;;;4.70;98.20;;;;;;4996221;28;20880;-73
2023/02/20 07:04:18;;;;;;;1.60;1.30;;;4.70;98.20;;;;;;5005245;28;20523;-73
2023/02/20 07:06:46;;;;;;;1.70;1.50;;;4.80;98.20;;;;;;4999173;28;20503;-73
2023/02/20 07:09:13;;;;;;;1.70;1.40;;;4.80;98.20;;;;;;5004820;28;20742;-74
2023/02/20 07:11:41;;;;;;;1.67;1.40;;;4.90;98.20;;;;;;4995543;28;20891;-72
2023/02/20 07:14:08;;;;;;;1.67;1.40;;;5.00;98.20;;;;;;5012033;28;20467;-73
2023/02/20 07:16:37;;;;;;;1.67;1.37;;;5.20;98.20;;;;;;4993207;28;21123;-72
2023/02/20 07:19:04;;;;;;;2.50;2.30;;;5.30;98.20;;;;;;5007697;28;21373;-74
2023/02/20 07:21:32;;;;;;;1.67;1.37;;;5.40;98.20;;;;;;4998224;28;20978;-74
2023/02/20 07:23:59;;;;;;;1.60;1.30;;;5.40;98.20;;;;;;5014255;28;20641;-73
2023/02/20 07:26:28;;;;;;;1.70;1.40;;;5.50;98.20;;;;;;4995950;28;20492;-73
2023/02/20 07:28:57;;;;;;;1.70;1.43;;;5.60;98.20;;;;;;5005068;28;20825;-73
2023/02/20 07:31:25;;;;;;;1.60;1.30;;;5.60;98.20;;;;;;4995679;28;20985;-73
2023/02/20 07:33:54;;;;;;;1.67;1.33;;;5.70;98.20;;;;;;5003558;28;20464;-73
2023/02/20 07:36:21;;;;;;;1.70;1.40;;;5.70;98.20;;;;;;5000079;28;20946;-73
2023/02/20 07:38:54;;;;;;;1.70;1.40;;;5.80;98.20;;;;;;5016635;28;20503;-74
2023/02/20 07:41:22;;;;;;;1.63;1.30;;;5.80;98.20;;;;;;5008712;28;20486;-73
2023/02/20 07:43:49;;;;;;;1.63;1.30;;;5.80;98.20;;;;;;5013471;28;20468;-73
2023/02/20 07:46:17;;;;;;;1.60;1.30;;;5.90;98.20;;;;;;4998251;28;20618;-74
2023/02/20 07:48:44;;;;;;;1.67;1.30;;;5.90;98.20;;;;;;5000343;28;20572;-74
2023/02/20 07:51:14;;;;;;;1.70;1.30;;;6.00;98.20;;;;;;4994196;28;21013;-72
2023/02/20 07:53:41;;;;;;;1.63;1.30;;;6.00;98.20;;;;;;5004007;28;20888;-73
2023/02/20 07:56:08;;;;;;;1.70;1.40;;;6.10;98.20;;;;;;4996699;28;20513;-73
2023/02/20 07:58:36;;;;;;;1.63;1.30;;;6.10;98.20;;;;;;4996341;28;20546;-73
2023/02/20 08:01:03;;;;;;;1.70;1.50;;;6.10;98.20;;;;;;5001886;28;20453;-73
2023/02/20 08:03:31;;;;;;;1.67;1.40;;;6.10;98.20;;;;;;5005856;28;20533;-73
2023/02/20 08:05:58;;;;;;;1.70;1.40;;;6.20;98.20;;;;;;4999561;28;20480;-73
2023/02/20 08:08:27;;;;;;;1.60;1.30;;;6.20;98.20;;;;;;5005230;28;20599;-72
2023/02/20 08:10:54;;;;;;;2.07;1.87;;;6.20;98.20;;;;;;5000996;28;20490;-72
2023/02/20 08:13:21;;;;;;;1.70;1.40;;;6.20;98.20;;;;;;5000920;28;20526;-73
2023/02/20 08:15:49;;;;;;;1.63;1.30;;;6.30;98.20;;;;;;5013441;28;20894;-74
2023/02/20 08:18:16;;;;;;;1.70;1.40;;;6.30;98.20;;;;;;5016217;28;20470;-73
2023/02/20 08:20:44;;;;;;;1.70;1.40;;;6.40;98.20;;;;;;5012090;28;20488;-73
2023/02/20 08:23:18;;;;;;;1.70;1.40;;;6.40;98.20;;;;;;4990600;28;20863;-73
2023/02/20 08:25:47;;;;;;;1.63;1.30;;;6.50;98.20;;;;;;5015972;28;20475;-74
2023/02/20 08:28:15;;;;;;;1.70;1.50;;;6.50;98.20;;;;;;4984325;28;20495;-73
2023/02/20 08:30:42;;;;;;;1.67;1.33;;;6.50;98.20;;;;;;5018154;28;20491;-73
2023/02/20 08:33:09;;;;;;;2.13;1.90;;;6.50;98.20;;;;;;4987866;28;20479;-72
2023/02/20 08:35:37;;;;;;;1.63;1.30;;;6.50;98.20;;;;;;5021961;28;20574;-73
2023/02/20 08:38:05;;;;;;;1.70;1.30;;;6.50;98.20;;;;;;4997139;28;20487;-72
2023/02/20 08:40:33;;;;;;;1.70;1.40;;;6.60;98.20;;;;;;5018006;28;20463;-73
2023/02/20 08:43:02;;;;;;;1.63;1.27;;;6.60;98.20;;;;;;4995501;28;20512;-72
2023/02/20 08:45:30;;;;;;;1.60;1.30;;;6.70;98.20;;;;;;5015061;28;20488;-72
2023/02/20 08:48:00;;;;;;;1.70;1.30;;;6.70;98.20;;;;;;4995184;28;20484;-73
2023/02/20 08:50:27;;;;;;;1.60;1.20;;;6.80;98.20;;;;;;5013376;28;20552;-73
2023/02/20 08:52:54;;;;;;;1.70;1.40;;;6.80;98.20;;;;;;4999424;28;20480;-73
2023/02/20 08:55:22;;;;;;;1.67;1.37;;;6.80;98.20;;;;;;5016716;28;20491;-72
2023/02/20 08:57:49;;;;;;;1.63;1.30;;;6.90;98.20;;;;;;4995353;28;20482;-73
2023/02/20 09:00:19;;;;;;;1.70;1.37;;;6.90;98.20;;;;;;5012019;28;20518;-72
2023/02/20 09:02:47;;;;;;;1.70;1.40;;;7.00;98.20;;;;;;4995053;28;20638;-73
2023/02/20 09:05:14;;;;;;;1.60;1.27;;;7.00;98.20;;;;;;5014146;28;20488;-73
2023/02/20 09:07:42;;;;;;;1.70;1.30;;;7.10;98.20;;;;;;4995715;28;21035;-73
2023/02/20 09:10:09;;;;;;;1.63;1.20;;;7.10;98.20;;;;;;5015465;28;20919;-72
2023/02/20 09:12:38;;;;;;;1.60;1.20;;;7.10;98.20;;;;;;4997952;28;20542;-73
2023/02/20 09:15:06;;;;;;;1.70;1.27;;;7.10;98.20;;;;;;5012261;28;20521;-73
2023/02/20 09:17:35;;;;;;;1.70;1.43;;;7.20;98.20;;;;;;4996395;28;20503;-73
2023/02/20 09:20:02;;;;;;;1.60;1.30;;;7.20;98.20;;;;;;5013186;28;20463;-74
2023/02/20 09:22:29;;;;;;;1.60;1.20;;;7.20;98.20;;;;;;4997146;28;20481;-74
2023/02/20 09:24:57;;;;;;;1.70;1.30;;;7.30;98.20;;;;;;5009012;28;20483;-73
2023/02/20 09:27:24;;;;;;;2.13;1.93;;;7.30;98.20;;;;;;5003019;28;20523;-73
2023/02/20 09:29:51;;;;;;;1.60;1.20;;;7.40;98.20;;;;;;5014860;28;20572;-74
2023/02/20 09:32:18;;;;;;;1.60;1.20;;;7.50;98.20;;;;;;5003119;28;20496;-74
2023/02/20 09:34:47;;;;;;;1.70;1.37;;;7.50;98.20;;;;;;5011623;28;20914;-74
2023/02/20 09:37:15;;;;;;;1.60;1.20;;;7.60;98.20;;;;;;5000196;28;20495;-74
2023/02/20 09:39:42;;;;;;;1.63;1.40;;;7.70;98.20;;;;;;5023223;28;20459;-75
2023/02/20 09:42:23;;;;;;;1.70;1.53;;;7.70;98.20;;;;;;5004573;28;20993;-75
2023/02/20 09:45:00;;;;;;;1.60;1.20;;;7.80;98.20;;;;;;5008218;28;20491;-74
2023/02/20 09:47:35;;;;;;;1.60;1.20;;;7.80;98.20;;;;;;5005146;28;20487;-74
2023/02/20 09:50:11;;;;;;;1.60;1.20;;;7.80;98.20;;;;;;5016364;28;20572;-75
2023/02/20 09:52:41;;;;;;;1.60;1.20;;;7.80;98.20;;;;;;5004496;28;20495;-74
2023/02/20 09:55:14;;;;;;;1.60;1.30;;;7.90;98.20;;;;;;5010862;28;20483;-75
2023/02/20 09:57:43;;;;;;;1.63;1.20;;;7.90;98.20;;;;;;4995388;28;20488;-75
2023/02/20 10:00:13;;;;;;;1.70;1.30;;;7.90;98.20;;;;;;5018460;28;20980;-75
2023/02/20 10:02:48;;;;;;;1.67;1.27;;;7.90;98.20;;;;;;4995842;28;20566;-75
2023/02/20 10:05:21;;;;;;;1.60;1.20;;;7.90;98.20;;;;;;5009811;28;20486;-75
2023/02/20 10:07:50;;;;;;;1.70;1.50;;;7.90;98.20;;;;;;5005046;28;20479;-75
2023/02/20 10:10:20;;;;;;;1.60;1.20;;;8.00;98.20;;;;;;5020129;28;20486;-75
2023/02/20 10:13:00;;;;;;;1.60;1.20;;;8.00;98.20;;;;;;4993153;28;20510;-76
2023/02/20 10:15:33;;;;;;;1.63;1.20;;;8.00;98.20;;;;;;5012587;28;20487;-75
2023/02/20 10:18:08;;;;;;;1.70;1.40;;;8.10;98.20;;;;;;4983369;28;20511;-75
2023/02/20 10:20:44;;;;;;;1.60;1.20;;;8.10;98.20;;;;;;5006323;28;20466;-75
2023/02/20 10:23:21;;;;;;;1.63;1.30;;;8.10;98.20;;;;;;4983766;28;20487;-76
2023/02/20 10:25:52;;;;;;;1.67;1.20;;;8.20;98.20;;;;;;5002438;28;20484;-76
2023/02/20 11:00:49;;;;;;;1.60;1.20;;;8.70;98.20;;;;;;5814401;23;20592;-76
2023/02/20 11:03:23;;;;;;;1.63;1.20;;;8.80;98.20;;;;;;4946696;28;20544;-76
2023/02/20 11:05:55;;;;;;;1.60;1.20;;;8.80;98.20;;;;;;4962712;28;20487;-75
2023/02/20 11:08:23;;;;;;;1.70;1.30;;;8.90;98.20;;;;;;4968566;28;20513;-76
2023/02/20 11:10:55;;;;;;;1.70;1.20;;;9.00;98.20;;;;;;4961662;28;20490;-76
2023/02/20 11:13:25;;;;;;;1.60;1.20;;;9.00;98.20;;;;;;4974995;28;20473;-76
2023/02/20 11:15:57;;;;;;;1.63;1.20;;;9.00;98.20;;;;;;4960012;28;20565;-76
2023/02/20 11:18:28;;;;;;;1.63;1.20;;;9.00;98.20;;;;;;4961047;28;20461;-76
2023/02/20 11:20:56;;;;;;;1.60;1.10;;;9.00;98.20;;;;;;4953117;28;20462;-76
2023/02/20 11:23:38;;;;;;;1.60;1.20;;;9.00;98.20;;;;;;4964394;28;20473;-75
2023/02/20 11:26:30;;;;;;;1.60;1.10;;;9.00;98.20;;;;;;4953791;28;20496;-75
2023/02/20 11:29:07;;;;;;;1.67;1.30;;;9.00;98.20;;;;;;4970811;28;20516;-75
2023/02/20 11:31:37;;;;;;;2.13;1.93;;;9.00;98.20;;;;;;4958211;28;20868;-75
2023/02/20 11:34:06;;;;;;;1.60;1.10;;;9.00;98.20;;;;;;4974050;28;20469;-75
2023/02/20 11:36:39;;;;;;;1.80;1.60;;;9.00;98.20;;;;;;4958345;28;20490;-76
2023/02/20 11:39:21;;;;;;;1.67;1.30;;;9.00;98.20;;;;;;4974314;28;20555;-75
2023/02/20 11:42:04;;;;;;;1.70;1.57;;;9.10;98.20;;;;;;4960068;28;20493;-76
2023/02/20 11:44:32;;;;;;;1.63;1.20;;;9.20;98.20;;;;;;4970237;28;20477;-75
2023/02/20 11:47:21;;;;;;;1.60;1.20;;;9.20;98.20;;;;;;4965162;28;20498;-77
2023/02/20 11:49:49;;;;;;;1.60;1.10;;;9.20;98.20;;;;;;4974070;28;20488;-76
2023/02/20 11:52:18;;;;;;;1.63;1.30;;;9.30;98.20;;;;;;4964486;28;20504;-76
2023/02/20 11:54:46;;;;;;;1.60;1.20;;;9.20;98.20;;;;;;4979203;28;20856;-78
2023/02/20 11:57:28;;;;;;;1.63;1.20;;;9.20;98.20;;;;;;4967031;28;20511;-74
2023/02/20 12:00:12;;;;;;;1.70;1.20;;;9.30;98.20;;;;;;4966354;28;20477;-73
2023/02/20 12:02:49;;;;;;;1.70;1.10;;;9.40;98.20;;;;;;4960772;28;20493;-75
2023/02/20 12:05:17;;;;;;;1.60;1.20;;;9.40;98.20;;;;;;4971604;28;21032;-74
2023/02/20 12:07:53;;;;;;;2.67;2.33;;;9.40;98.20;;;;;;4955723;28;20493;-75
2023/02/20 12:10:44;;;;;;;1.60;1.17;;;9.40;98.20;;;;;;4968221;28;21017;-76
2023/02/20 12:13:16;;;;;;;1.60;1.17;;;9.40;98.20;;;;;;4971830;28;20862;-77
2023/02/20 12:15:48;;;;;;;1.60;1.20;;;9.40;98.20;;;;;;4978857;28;20543;-76
2023/02/20 12:18:38;;;;;;;1.60;1.30;;;9.40;98.20;;;;;;4947818;28;20512;-76
2023/02/20 12:21:18;;;;;;;2.07;1.80;;;9.50;98.20;;;;;;4961237;28;20468;-76
2023/02/20 12:24:01;;;;;;;1.60;1.20;;;9.60;98.20;;;;;;4975551;28;20472;-76
2023/02/20 12:26:50;;;;;;;1.70;1.40;;;9.60;98.20;;;;;;4960428;28;20500;-76
2023/02/20 12:29:31;;;;;;;1.60;1.20;;;9.60;98.20;;;;;;4970747;28;20589;-76
2023/02/20 12:32:10;;;;;;;3.93;3.63;;;9.60;98.20;;;;;;4964134;28;20486;-75
2023/02/20 12:34:58;;;;;;;1.60;1.10;;;9.60;98.20;;;;;;4980892;28;20523;-76
2023/02/20 12:37:41;;;;;;;1.60;1.10;;;9.70;98.20;;;;;;4956728;28;20553;-76
2023/02/20 12:40:26;;;;;;;1.60;1.13;;;9.70;98.20;;;;;;4980024;28;20911;-75
2023/02/20 12:43:01;;;;;;;1.60;1.10;;;9.70;98.20;;;;;;4950608;28;20869;-76
2023/02/20 12:45:36;;;;;;;1.60;1.20;;;9.70;98.20;;;;;;4981601;28;20480;-75
2023/02/20 12:48:21;;;;;;;1.60;1.20;;;9.70;98.20;;;;;;4949727;28;20491;-74
2023/02/20 12:51:05;;;;;;;1.70;1.50;;;9.70;98.20;;;;;;4977611;28;20584;-75
2023/02/20 12:53:57;;;;;;;1.60;1.10;;;9.60;98.20;;;;;;4962564;28;20479;-75
2023/02/20 12:56:42;;;;;;;1.60;1.10;;;9.50;98.20;;;;;;4967040;28;20516;-76
2023/02/20 12:59:21;;;;;;;1.60;1.10;;;9.50;98.20;;;;;;4978954;28;20529;-75
2023/02/20 13:01:53;;;;;;;1.60;1.23;;;9.50;98.20;;;;;;4963864;28;20885;-75
2023/02/20 13:04:28;;;;;;;1.60;1.10;;;9.50;98.20;;;;;;4979655;28;20475;-75
2023/02/20 13:07:05;;;;;;;2.33;2.13;;;9.50;98.20;;;;;;4967670;28;20500;-75
2023/02/20 13:09:37;;;;;;;1.60;1.20;;;9.40;98.20;;;;;;4980543;28;20476;-75
2023/02/20 13:12:11;;;;;;;1.60;1.20;;;9.40;98.20;;;;;;4968880;28;20603;-75
2023/02/20 13:15:03;;;;;;;1.60;1.20;;;9.40;98.20;;;;;;4979344;28;20983;-75
2023/02/20 13:17:40;;;;;;;1.60;1.40;;;9.40;98.20;;;;;;4948522;28;20524;-75
2023/02/20 13:20:18;;;;;;;1.60;1.10;;;9.30;98.20;;;;;;4980289;28;20471;-75
2023/02/20 13:23:01;;;;;;;1.60;1.10;;;9.30;98.20;;;;;;4964973;28;20882;-75
2023/02/20 13:25:38;;;;;;;1.60;1.20;;;9.40;98.20;;;;;;4981987;28;21030;-76
2023/02/20 13:28:44;;;;;;;1.60;1.20;;;9.40;98.20;;;;;;4967585;28;20873;-75
2023/02/20 13:31:20;;;;;;;1.60;1.20;;;9.30;98.20;;;;;;4955702;28;20484;-76
2023/02/20 13:33:50;;;;;;;1.60;1.20;;;9.30;98.20;;;;;;4974302;28;20471;-76
2023/02/20 13:36:38;;;;;;;1.60;1.20;;;9.30;98.20;;;;;;4963195;28;20481;-75
2023/02/20 13:39:45;;;;;;;1.60;1.20;;;9.30;98.20;;;;;;4971927;28;20469;-75
2023/02/20 13:42:41;;;;;;;1.60;1.20;;;9.30;98.20;;;;;;4967398;28;20543;-75
2023/02/20 13:45:40;;;;;;;1.60;1.10;;;9.40;98.20;;;;;;4930488;28;20639;-75
2023/02/20 13:48:42;;;;;;;1.60;1.20;;;9.40;98.20;;;;;;4864243;29;20481;-75
2023/02/20 13:51:31;;;;;;;1.60;1.20;;;9.30;98.20;;;;;;4964385;28;21392;-75
2023/02/20 13:54:11;;;;;;;1.90;1.67;;;9.30;98.20;;;;;;4965902;28;20465;-75
2023/02/20 13:56:49;;;;;;;1.80;1.57;;;9.40;98.20;;;;;;4956028;28;20748;-75
2023/02/20 13:59:20;;;;;;;1.60;1.20;;;9.40;98.20;;;;;;4966090;28;20970;-75
2023/02/20 14:01:56;;;;;;;2.17;1.97;;;9.40;98.20;;;;;;4963573;28;20918;-75
2023/02/20 14:04:23;;;;;;;1.60;1.20;;;9.50;98.20;;;;;;4974411;28;20934;-75
2023/02/20 14:06:51;;;;;;;1.60;1.33;;;9.50;98.20;;;;;;4962769;28;20500;-75
2023/02/20 14:09:23;;;;;;;1.60;1.20;;;9.50;98.20;;;;;;4976177;28;20961;-75
2023/02/20 14:11:54;;;;;;;1.60;1.20;;;9.50;98.20;;;;;;4965858;28;20866;-75